Nearby METAR Reports

 

KHOB - Hobbs, New Mexico, USA
Distance from station: S 40mi, 65km
Updated: Sat, 28-Nov-2020 2:50pm MST
Few Clouds
Few Clouds
 Wind from W
Wind: W 14 mph , 22 km/h, Gust: 22 mph , 35 km/h
Temperature: 55°F , 13°C
Dew Point: 27°F , -3°C
Humidity: 33%
Barometer: 30.11 inHg , 1019.6 hPa
Clouds: Few Clouds
Visibility: 10 miles , 16 km
Cloud details: Few Clouds 5000 ft
2020/11/28 21:50 KHOB 282150Z 28012G19KT 10SM FEW050 13/M03 A3011
KGNC - Seminole, Texas, USA
Distance from station: SE 55mi, 89km
Updated: Sat, 28-Nov-2020 3:15pm MST
Clear
Clear
 Wind from NNW
Wind: NNW 5 mph , 7 km/h
Temperature: 54°F , 12°C
Dew Point: 32°F , 0°C
Humidity: 44%
Barometer: 30.14 inHg , 1020.7 hPa
Clouds: Clear
Visibility: 10 miles , 16 km
2020/11/28 22:15 KGNC 282215Z AUTO 33004KT 10SM CLR 12/00 A3014 RMK AO2 T01230002
 
KROW - Roswell, New Mexico, USA
Distance from station: W 67mi, 108km
Updated: Sat, 28-Nov-2020 2:51pm MST
Clear
Clear
 Wind from SW
Wind: SW 5 mph , 7 km/h
Temperature: 55°F , 13°C
Dew Point: 28°F , -2°C
Humidity: 36%
Barometer: 30.09 inHg , 1019 hPa
Clouds: Clear
Visibility: 10 miles , 16 km
2020/11/28 21:51 KROW 282151Z 23004KT 10SM CLR 13/M02 A3009 RMK AO2 SLP165 T01281017
KATS - Artesia, New Mexico, USA
Distance from station: WSW 71mi, 114km
Updated: Sat, 28-Nov-2020 3:15pm MST
Clear
Clear
 Wind from calm
Wind: Calm
Temperature: 54°F , 12°C
Dew Point: 30°F , -1°C
Humidity: 41%
Barometer: 30.11 inHg , 1019.6 hPa
Clouds: Clear
Visibility: 10 miles , 16 km
2020/11/28 22:15 KATS 282215Z AUTO 00000KT 10SM CLR 12/M01 A3011 RMK AO2
 
KCVS - Cannon AFB,Clovis, New Mexico, USA
Distance from station: 0 78mi, 125km
Updated: Sat, 28-Nov-2020 2:58pm MST
Overcast
Overcast
 Wind from NNW
Wind: NNW 6 mph , 9 km/h
Temperature: 43°F , 6°C
Wind Chill: 39°F , 4°C
Dew Point: 30°F , -1°C
Humidity: 61%
Barometer: 30.10 inHg , 1019.3 hPa
Clouds: Overcast
Visibility: 10 miles , 16 km
Cloud details: Mostly cloudy 4500 ft
Overcast 5000 ft
2020/11/28 21:58 KCVS 282158Z AUTO 33005KT 10SM BKN045 OVC050 06/M01 A3010 RMK AO2 SLP189 T00641008 $
KE11 - Andrews, Texas, USA
Distance from station: SE 78mi, 126km
Updated: Sat, 28-Nov-2020 3:15pm MST
Clear
Clear
 Wind from N
Wind: N 3 mph , 6 km/h
Temperature: 54°F , 12°C
Dew Point: 32°F , 0°C
Humidity: 44%
Barometer: 30.10 inHg , 1019.3 hPa
Clouds: Clear
Visibility: 10 miles , 16 km
2020/11/28 22:15 KE11 282215Z AUTO 36003KT 10SM CLR 12/00 A3010 RMK AO2 T01220000
 
KCNM - Carlsbad, New Mexico, USA
Distance from station: SW 82mi, 132km
Updated: Sat, 28-Nov-2020 2:53pm MST
Few Clouds
Few Clouds
 Wind from NE
Wind: NE 8 mph , 13 km/h
Temperature: 55°F , 13°C
Dew Point: 30°F , -1°C
Humidity: 38%
Barometer: 30.09 inHg , 1019 hPa
Clouds: Few Clouds
Visibility: 10 miles , 16 km
Cloud details: Few Clouds 6000 ft
2020/11/28 21:53 KCNM 282153Z AUTO 04007KT 10SM FEW060 13/M01 A3009 RMK AO2 SLP171 T01331011
KCVN - Clovis Muni, New Mexico, USA
Distance from station: N 83mi, 133km
Updated: Sat, 28-Nov-2020 2:56pm MST
Overcast
Overcast
 Wind from NE
Wind: NE 3 mph , 6 km/h
Temperature: 39°F , 4°C
Dew Point: 36°F , 2°C
Humidity: 87%
Barometer: 30.11 inHg , 1019.6 hPa
Clouds: Overcast
Visibility: 10 miles , 16 km
Cloud details: Few Clouds 1100 ft
Partly cloudy 3200 ft
Overcast 5000 ft
2020/11/28 21:56 KCVN 282156Z AUTO 05003KT 10SM FEW011 SCT032 OVC050 04/02 A3011 RMK AO2 RAE11 SLP208 P0000 T00440017
 
KLBB - Lubbock, Texas, USA
Distance from station: ENE 92mi, 149km
Updated: Sat, 28-Nov-2020 2:53pm MST
Overcast
Overcast
 Wind from NW
Wind: NW 8 mph , 13 km/h
Temperature: 43°F , 6°C
Wind Chill: 38°F , 3°C
Dew Point: 36°F , 2°C
Humidity: 76%
Barometer: 30.12 inHg , 1020 hPa
Clouds: Overcast
Visibility: 10 miles , 16 km
Cloud details: Overcast 1000 ft
2020/11/28 21:53 KLBB 282153Z 32007KT 10SM OVC010 06/02 A3012 RMK AO2 SLP196 T00560022
KINK - Wink, Texas, USA
Distance from station: S 101mi, 163km
Updated: Sat, 28-Nov-2020 2:53pm MST
Clear
Clear
 Wind from W
Wind: W 13 mph , 20 km/h
Temperature: 59°F , 15°C
Dew Point: 30°F , -1°C
Humidity: 34%
Barometer: 30.09 inHg , 1019 hPa
Clouds: Clear
Visibility: 10 miles , 16 km
2020/11/28 21:53 KINK 282153Z AUTO 28011KT 10SM CLR 15/M01 A3009 RMK AO2 SLP172 T01501006
 
KMAF - Midland, Texas, USA
Distance from station: SE 111mi, 179km
Updated: Sat, 28-Nov-2020 2:53pm MST
Few Clouds
Few Clouds
 Wind from NNE
Wind: NNE 9 mph , 15 km/h
Temperature: 55°F , 13°C
Dew Point: 37°F , 3°C
Humidity: 51%
Barometer: 30.11 inHg , 1019.6 hPa
Clouds: Few Clouds
Visibility: 10 miles , 16 km
Cloud details: Few Clouds 4600 ft
2020/11/28 21:53 KMAF 282153Z 02008KT 10SM FEW046 13/03 A3011 RMK AO2 SLP178 T01280028
KSRR - Sierra B/Ruidoso, New Mexico, USA
Distance from station: W 127mi, 204km
Updated: Sat, 28-Nov-2020 3:15pm MST
Clear
Clear
 Wind from NW
Wind: NW 18 mph , 30 km/h, Gust: 26 mph , 43 km/h
Temperature: 39°F , 4°C
Wind Chill: 30°F , -1°C
Dew Point: 25°F , -4°C
Humidity: 56%
Barometer: 30.14 inHg , 1020.7 hPa
Clouds: Clear
Visibility: 10 miles , 16 km
2020/11/28 22:15 KSRR 282215Z AUTO 31016G23KT 10SM CLR 04/M04 A3014 RMK AO2
 
KGDP - Guadalupe Pass, Texas, USA
Distance from station: SW 130mi, 209km
Updated: Sat, 28-Nov-2020 2:51pm MST
Clear
Clear
 Wind from WSW
Wind: WSW 25 mph , 41 km/h, Gust: 33 mph , 54 km/h
Temperature: 50°F , 10°C
Wind Chill: 43°F , 6°C
Dew Point: 28°F , -2°C
Humidity: 43%
Barometer: 30.12 inHg , 1020 hPa
Clouds: Clear
Visibility: 9 miles , 14 km
2020/11/28 21:51 KGDP 282151Z AUTO 25022G29KT 9SM CLR 10/M02 A3012 RMK AO2 PK WND 25029/2149 SLP181 T01001022 $